Time;durP1;ratioP1;P1;durP2;ratioP2;P2;SDS_P1;SDS_P2;PMS_P1;PMS_P2;Temp;Humidity;BMP_temperature;BMP_pressure;BME280_temperature;BME280_humidity;BME280_pressure;Samples;Min_cycle;Max_cycle;Signal;HPM_P1;HPM_P2
2022/07/22 00:01:20;;;;;;;1999.90;999.90;;;;;;;;;;5080414;27;20415;-74
2022/07/22 00:03:48;;;;;;;1999.90;999.90;;;;;;;;;;5079159;27;20377;-74
2022/07/22 00:06:16;;;;;;;1999.90;999.90;;;;;;;;;;5101128;27;20894;-74
2022/07/22 00:08:44;;;;;;;1999.90;999.90;;;;;;;;;;5082645;27;20397;-75
2022/07/22 00:11:13;;;;;;;1999.90;999.90;;;;;;;;;;5086021;27;20409;-73
2022/07/22 00:13:40;;;;;;;1999.90;999.90;;;;;;;;;;5083665;27;20411;-74
2022/07/22 00:16:09;;;;;;;1999.90;999.90;;;;;;;;;;5093091;27;20392;-75
2022/07/22 00:18:36;;;;;;;1999.90;999.90;;;;;;;;;;5112904;27;20403;-74
2022/07/22 00:21:04;;;;;;;1999.90;999.90;;;;;;;;;;5082210;27;20428;-75
2022/07/22 00:23:38;;;;;;;1999.90;999.90;;;;;;;;;;5100553;27;21168;-76
2022/07/22 00:26:06;;;;;;;1999.90;999.90;;;;;;;;;;5080948;27;20780;-74
2022/07/22 00:28:35;;;;;;;1999.90;999.90;;;;;;;;;;5082605;27;20409;-73
2022/07/22 00:31:03;;;;;;;1999.90;999.90;;;;;;;;;;5083773;27;20409;-74
2022/07/22 00:33:31;;;;;;;1999.90;999.90;;;;;;;;;;5077386;28;20391;-74
2022/07/22 00:36:00;;;;;;;1999.90;999.90;;;;;;;;;;5064763;27;20413;-74
2022/07/22 00:38:27;;;;;;;1999.90;999.90;;;;;;;;;;5101244;27;20400;-74
2022/07/22 00:40:55;;;;;;;1999.90;999.90;;;;;;;;;;5083030;27;20655;-74
2022/07/22 00:43:23;;;;;;;1999.90;999.90;;;;;;;;;;5079101;27;20403;-74
2022/07/22 00:45:52;;;;;;;1999.90;999.90;;;;;;;;;;5083282;27;21481;-75
2022/07/22 00:48:20;;;;;;;1999.90;999.90;;;;;;;;;;5078194;27;20438;-74
2022/07/22 00:50:48;;;;;;;1999.90;999.90;;;;;;;;;;5123500;27;20482;-75
2022/07/22 00:53:16;;;;;;;1999.90;999.90;;;;;;;;;;5078018;27;20416;-74
2022/07/22 00:55:44;;;;;;;1999.90;999.90;;;;;;;;;;5080586;27;20405;-75
2022/07/22 00:58:12;;;;;;;1999.90;999.90;;;;;;;;;;5078024;27;20420;-75
2022/07/22 01:00:40;;;;;;;1999.90;999.90;;;;;;;;;;5086882;27;20793;-74
2022/07/22 01:03:09;;;;;;;1999.90;999.90;;;;;;;;;;5064764;27;21252;-74
2022/07/22 01:05:37;;;;;;;1999.90;999.90;;;;;;;;;;5082834;27;20421;-75
2022/07/22 01:08:06;;;;;;;1999.90;999.90;;;;;;;;;;5081516;27;21399;-75
2022/07/22 01:10:34;;;;;;;1999.90;999.90;;;;;;;;;;5082711;27;20420;-74
2022/07/22 01:13:01;;;;;;;1999.90;999.90;;;;;;;;;;5081109;27;20912;-75
2022/07/22 01:15:30;;;;;;;1999.90;999.90;;;;;;;;;;5061809;27;20412;-75
2022/07/22 01:17:57;;;;;;;1999.90;999.90;;;;;;;;;;5098500;27;20405;-75
2022/07/22 01:20:27;;;;;;;1999.90;999.90;;;;;;;;;;5080111;27;20874;-75
2022/07/22 01:22:54;;;;;;;1999.90;999.90;;;;;;;;;;5082928;27;20891;-74
2022/07/22 01:25:22;;;;;;;1999.90;999.90;;;;;;;;;;5095363;27;20506;-75
2022/07/22 01:27:51;;;;;;;1999.90;999.90;;;;;;;;;;5065111;28;20467;-74
2022/07/22 01:30:19;;;;;;;1999.90;999.90;;;;;;;;;;5083005;27;20876;-74
2022/07/22 01:32:46;;;;;;;1999.90;999.90;;;;;;;;;;5063142;28;21182;-75
2022/07/22 01:35:14;;;;;;;1999.90;999.90;;;;;;;;;;5087319;27;21249;-74
2022/07/22 01:37:43;;;;;;;1999.90;999.90;;;;;;;;;;5062414;28;20399;-74
2022/07/22 01:40:12;;;;;;;1999.90;999.90;;;;;;;;;;5112250;27;20440;-75
2022/07/22 01:42:40;;;;;;;1999.90;999.90;;;;;;;;;;5099774;27;20390;-74
2022/07/22 01:45:09;;;;;;;1999.90;999.90;;;;;;;;;;5061517;27;20381;-74
2022/07/22 01:47:36;;;;;;;1999.90;999.90;;;;;;;;;;5084525;27;20557;-74
2022/07/22 01:50:06;;;;;;;1999.90;999.90;;;;;;;;;;5077350;27;20403;-74
2022/07/22 01:52:34;;;;;;;1999.90;999.90;;;;;;;;;;5092083;27;20397;-75
2022/07/22 01:55:05;;;;;;;1999.90;999.90;;;;;;;;;;5081026;27;20397;-75
2022/07/22 01:57:33;;;;;;;1999.90;999.90;;;;;;;;;;5080770;27;20421;-75
2022/07/22 02:00:09;;;;;;;1999.90;999.90;;;;;;;;;;5079217;27;20916;-75
2022/07/22 02:02:43;;;;;;;1999.90;999.90;;;;;;;;;;5077993;27;20922;-74
2022/07/22 02:05:11;;;;;;;1999.90;999.90;;;;;;;;;;5112928;27;20514;-74
2022/07/22 02:07:38;;;;;;;1999.90;999.90;;;;;;;;;;5079728;27;20524;-75
2022/07/22 02:10:08;;;;;;;1999.90;999.90;;;;;;;;;;5059105;27;20401;-74
2022/07/22 02:12:36;;;;;;;1999.90;999.90;;;;;;;;;;5059721;27;20404;-75
2022/07/22 02:15:05;;;;;;;1999.90;999.90;;;;;;;;;;5063111;27;20415;-74
2022/07/22 02:17:34;;;;;;;1999.90;999.90;;;;;;;;;;5059804;28;20397;-73
2022/07/22 02:20:02;;;;;;;1999.90;999.90;;;;;;;;;;5113390;27;20490;-75
2022/07/22 02:22:31;;;;;;;1999.90;999.90;;;;;;;;;;5077205;27;20413;-74
2022/07/22 02:24:59;;;;;;;1999.90;999.90;;;;;;;;;;5076826;27;20417;-74
2022/07/22 02:27:28;;;;;;;1999.90;999.90;;;;;;;;;;5058616;27;20389;-74
2022/07/22 02:29:56;;;;;;;1999.90;999.90;;;;;;;;;;5111586;27;20437;-73
2022/07/22 02:32:24;;;;;;;1999.90;999.90;;;;;;;;;;5063903;27;20672;-73
2022/07/22 02:34:52;;;;;;;1999.90;999.90;;;;;;;;;;5077901;27;20415;-75
2022/07/22 02:37:20;;;;;;;1999.90;999.90;;;;;;;;;;5062446;27;22335;-74
2022/07/22 02:39:48;;;;;;;1999.90;999.90;;;;;;;;;;5073831;27;21128;-73
2022/07/22 02:42:17;;;;;;;1999.90;999.90;;;;;;;;;;5091511;27;20431;-74
2022/07/22 02:44:49;;;;;;;1999.90;999.90;;;;;;;;;;5087833;27;20429;-74
2022/07/22 02:47:17;;;;;;;1999.90;999.90;;;;;;;;;;5056804;27;20484;-74
2022/07/22 02:49:45;;;;;;;1999.90;999.90;;;;;;;;;;5077045;27;21188;-75
2022/07/22 02:52:13;;;;;;;1999.90;999.90;;;;;;;;;;5076623;27;20442;-73
2022/07/22 02:54:41;;;;;;;1999.90;999.90;;;;;;;;;;5082204;27;20395;-74
2022/07/22 02:57:09;;;;;;;1999.90;999.90;;;;;;;;;;5058284;27;21060;-72
2022/07/22 02:59:37;;;;;;;1999.90;999.90;;;;;;;;;;5075046;27;20499;-73
2022/07/22 03:02:06;;;;;;;1999.90;999.90;;;;;;;;;;5077568;27;20487;-74
2022/07/22 03:04:34;;;;;;;1999.90;999.90;;;;;;;;;;5076366;27;20401;-74
2022/07/22 03:07:02;;;;;;;1999.90;999.90;;;;;;;;;;5059334;27;20415;-73
2022/07/22 03:09:31;;;;;;;1999.90;999.90;;;;;;;;;;5059937;28;22754;-74
2022/07/22 03:11:59;;;;;;;1999.90;999.90;;;;;;;;;;5063210;27;20412;-74
2022/07/22 03:14:27;;;;;;;1999.90;999.90;;;;;;;;;;5060362;27;20511;-73
2022/07/22 03:16:55;;;;;;;1999.90;999.90;;;;;;;;;;5074614;27;21008;-73
2022/07/22 03:19:24;;;;;;;1999.90;999.90;;;;;;;;;;5072566;27;20443;-74
2022/07/22 03:21:54;;;;;;;1999.90;999.90;;;;;;;;;;5094588;27;20402;-74
2022/07/22 03:24:22;;;;;;;1999.90;999.90;;;;;;;;;;5106303;27;20397;-74
2022/07/22 03:26:50;;;;;;;1999.90;999.90;;;;;;;;;;5087890;27;20855;-73
2022/07/22 03:29:18;;;;;;;1999.90;999.90;;;;;;;;;;5056539;27;20515;-75
2022/07/22 03:31:46;;;;;;;1999.90;999.90;;;;;;;;;;5090339;27;20406;-74
2022/07/22 03:34:14;;;;;;;1999.90;999.90;;;;;;;;;;5059893;27;20402;-74
2022/07/22 03:36:51;;;;;;;1999.90;999.90;;;;;;;;;;5056069;28;20403;-74
2022/07/22 03:39:19;;;;;;;1999.90;999.90;;;;;;;;;;5076628;27;20457;-74
2022/07/22 03:41:48;;;;;;;1999.90;999.90;;;;;;;;;;5059578;28;20418;-75
2022/07/22 03:44:16;;;;;;;1999.90;999.90;;;;;;;;;;5067563;27;20411;-73
2022/07/22 03:46:44;;;;;;;1999.90;999.90;;;;;;;;;;5057330;28;20831;-74
2022/07/22 03:49:14;;;;;;;1999.90;999.90;;;;;;;;;;5062352;27;20409;-74
2022/07/22 03:51:42;;;;;;;1999.90;999.90;;;;;;;;;;5063746;28;20531;-74
2022/07/22 03:54:11;;;;;;;1999.90;999.90;;;;;;;;;;5081552;27;20421;-74
2022/07/22 03:56:42;;;;;;;1999.90;999.90;;;;;;;;;;5094724;27;20481;-73
2022/07/22 03:59:10;;;;;;;1999.90;999.90;;;;;;;;;;5079271;27;20411;-74
2022/07/22 04:01:38;;;;;;;1999.90;999.90;;;;;;;;;;5080064;27;20450;-74
2022/07/22 04:04:08;;;;;;;1999.90;999.90;;;;;;;;;;5060835;27;20827;-73
2022/07/22 04:06:39;;;;;;;1999.90;999.90;;;;;;;;;;5077232;27;20405;-74
2022/07/22 04:09:13;;;;;;;1999.90;999.90;;;;;;;;;;5081378;27;20583;-73
2022/07/22 04:11:41;;;;;;;1999.90;999.90;;;;;;;;;;5081174;27;20520;-73
2022/07/22 04:14:10;;;;;;;1999.90;999.90;;;;;;;;;;5096267;27;20395;-73
2022/07/22 04:16:38;;;;;;;1999.90;999.90;;;;;;;;;;5112055;27;20588;-73
2022/07/22 04:19:09;;;;;;;1999.90;999.90;;;;;;;;;;5082281;27;20401;-74
2022/07/22 04:21:57;;;;;;;1999.90;999.90;;;;;;;;;;5083546;27;20414;-74
2022/07/22 04:24:31;;;;;;;1999.90;999.90;;;;;;;;;;5079144;27;20437;-73
2022/07/22 04:26:58;;;;;;;1999.90;999.90;;;;;;;;;;5102531;27;20422;-74
2022/07/22 04:29:27;;;;;;;1999.90;999.90;;;;;;;;;;5070872;27;20423;-73
2022/07/22 04:31:54;;;;;;;1999.90;999.90;;;;;;;;;;5095110;27;20512;-77
2022/07/22 04:34:29;;;;;;;1999.90;999.90;;;;;;;;;;5066973;27;20445;-77
2022/07/22 04:36:57;;;;;;;1999.90;999.90;;;;;;;;;;5091455;27;20400;-75
2022/07/22 04:39:28;;;;;;;1999.90;999.90;;;;;;;;;;5094741;27;20451;-74
2022/07/22 04:41:59;;;;;;;1999.90;999.90;;;;;;;;;;5065485;27;20415;-75
2022/07/22 04:44:28;;;;;;;1999.90;999.90;;;;;;;;;;5077572;27;20395;-76
2022/07/22 04:46:57;;;;;;;1999.90;999.90;;;;;;;;;;5064746;27;20412;-78
2022/07/22 04:49:25;;;;;;;1999.90;999.90;;;;;;;;;;5079206;27;20397;-78
2022/07/22 04:51:56;;;;;;;1999.90;999.90;;;;;;;;;;5065295;27;20394;-78
2022/07/22 04:54:38;;;;;;;1999.90;999.90;;;;;;;;;;5061300;28;20523;-79
2022/07/22 04:57:08;;;;;;;1999.90;999.90;;;;;;;;;;5078530;27;20407;-79
2022/07/22 04:59:36;;;;;;;1999.90;999.90;;;;;;;;;;5082262;27;20418;-79
2022/07/22 05:02:04;;;;;;;1999.90;999.90;;;;;;;;;;5078203;27;20403;-79
2022/07/22 05:04:32;;;;;;;1999.90;999.90;;;;;;;;;;5082392;27;20381;-79
2022/07/22 05:07:02;;;;;;;1999.90;999.90;;;;;;;;;;5062750;27;20451;-78
2022/07/22 05:09:30;;;;;;;1999.90;999.90;;;;;;;;;;5096723;27;20407;-79
2022/07/22 05:11:59;;;;;;;1999.90;999.90;;;;;;;;;;5079924;27;20399;-78
2022/07/22 05:14:29;;;;;;;1999.90;999.90;;;;;;;;;;5095435;27;20491;-80
2022/07/22 05:16:56;;;;;;;1999.90;999.90;;;;;;;;;;5102694;27;20410;-81
2022/07/22 05:19:24;;;;;;;1999.90;999.90;;;;;;;;;;5081181;27;21460;-79
2022/07/22 05:21:52;;;;;;;1999.90;999.90;;;;;;;;;;5071560;28;20408;-82
2022/07/22 05:24:20;;;;;;;1999.90;999.90;;;;;;;;;;5079585;27;21397;-80
2022/07/22 05:26:48;;;;;;;1999.90;999.90;;;;;;;;;;5080186;27;20487;-81
2022/07/22 05:29:16;;;;;;;1999.90;999.90;;;;;;;;;;5078036;27;20455;-84
2022/07/22 05:31:46;;;;;;;1999.90;999.90;;;;;;;;;;5111429;27;20412;-81
2022/07/22 05:34:14;;;;;;;1999.90;999.90;;;;;;;;;;5096307;27;20396;-80
2022/07/22 05:36:45;;;;;;;1999.90;999.90;;;;;;;;;;5095253;27;20551;-80
2022/07/22 05:39:14;;;;;;;1999.90;999.90;;;;;;;;;;5098447;27;20412;-81
2022/07/22 05:41:42;;;;;;;1999.90;999.90;;;;;;;;;;5081841;27;20503;-82
2022/07/22 05:44:10;;;;;;;1999.90;999.90;;;;;;;;;;5079522;27;21130;-81
2022/07/22 05:46:38;;;;;;;1999.90;999.90;;;;;;;;;;5063879;28;20404;-82
2022/07/22 05:49:08;;;;;;;1999.90;999.90;;;;;;;;;;5078867;27;20421;-81
2022/07/22 05:51:49;;;;;;;1999.90;999.90;;;;;;;;;;5067716;28;20406;-79
2022/07/22 05:54:16;;;;;;;1999.90;999.90;;;;;;;;;;5100261;27;21382;-79
2022/07/22 05:56:44;;;;;;;1999.90;999.90;;;;;;;;;;5096560;27;20460;-83
2022/07/22 05:59:12;;;;;;;1999.90;999.90;;;;;;;;;;5084194;27;20430;-80
2022/07/22 06:01:40;;;;;;;1999.90;999.90;;;;;;;;;;5067396;28;20401;-74
2022/07/22 06:04:29;;;;;;;1999.90;999.90;;;;;;;;;;5077580;27;20419;-74
2022/07/22 06:06:58;;;;;;;1999.90;999.90;;;;;;;;;;5078359;27;20500;-74
2022/07/22 06:09:26;;;;;;;1999.90;999.90;;;;;;;;;;5061458;27;20765;-71
2022/07/22 06:11:54;;;;;;;1999.90;999.90;;;;;;;;;;5061548;27;20802;-71
2022/07/22 06:14:22;;;;;;;1999.90;999.90;;;;;;;;;;5077368;27;20961;-71
2022/07/22 06:16:50;;;;;;;1999.90;999.90;;;;;;;;;;5094738;27;20663;-71
2022/07/22 06:19:18;;;;;;;1999.90;999.90;;;;;;;;;;5111639;27;20496;-70
2022/07/22 06:21:48;;;;;;;1999.90;999.90;;;;;;;;;;5096734;27;20393;-71
2022/07/22 06:24:16;;;;;;;1999.90;999.90;;;;;;;;;;5075701;27;20389;-71
2022/07/22 06:26:45;;;;;;;1999.90;999.90;;;;;;;;;;5110536;27;20453;-71
2022/07/22 06:29:13;;;;;;;1999.90;999.90;;;;;;;;;;5078427;27;20486;-72
2022/07/22 06:31:41;;;;;;;1999.90;999.90;;;;;;;;;;5080163;27;20404;-72
2022/07/22 06:34:09;;;;;;;1999.90;999.90;;;;;;;;;;5079064;27;20407;-71
2022/07/22 06:36:54;;;;;;;1999.90;999.90;;;;;;;;;;5097984;27;20451;-72
2022/07/22 06:39:22;;;;;;;1999.90;999.90;;;;;;;;;;5061285;27;20486;-72
2022/07/22 06:42:07;;;;;;;1999.90;999.90;;;;;;;;;;5078976;27;20898;-71
2022/07/22 06:44:53;;;;;;;1999.90;999.90;;;;;;;;;;5078049;27;20407;-70
2022/07/22 06:47:35;;;;;;;1999.90;999.90;;;;;;;;;;5078069;27;20405;-76
2022/07/22 06:50:07;;;;;;;1999.90;999.90;;;;;;;;;;5070109;27;20925;-75
2022/07/22 06:52:43;;;;;;;1999.90;999.90;;;;;;;;;;5086336;27;20395;-76
2022/07/22 06:55:10;;;;;;;1999.90;999.90;;;;;;;;;;5082834;27;20384;-80
2022/07/22 06:57:45;;;;;;;1999.90;999.90;;;;;;;;;;5073463;28;20386;-82
2022/07/22 07:00:14;;;;;;;1999.90;999.90;;;;;;;;;;5073700;27;20436;-81
2022/07/22 07:03:00;;;;;;;1999.90;999.90;;;;;;;;;;5096967;27;20515;-80
2022/07/22 07:05:50;;;;;;;1999.90;999.90;;;;;;;;;;5077517;28;21221;-81
2022/07/22 07:08:20;;;;;;;1999.90;999.90;;;;;;;;;;5103401;27;20451;-80
2022/07/22 07:10:48;;;;;;;1999.90;999.90;;;;;;;;;;5074152;27;20496;-81
2022/07/22 07:13:22;;;;;;;1999.90;999.90;;;;;;;;;;5105972;27;20451;-82
2022/07/22 07:15:50;;;;;;;1999.90;999.90;;;;;;;;;;5088945;27;20478;-81
2022/07/22 07:18:18;;;;;;;1999.90;999.90;;;;;;;;;;5085655;27;20511;-81
2022/07/22 07:20:49;;;;;;;1999.90;999.90;;;;;;;;;;5105212;27;20530;-81
2022/07/22 07:23:17;;;;;;;1999.90;999.90;;;;;;;;;;5086387;27;20391;-81
2022/07/22 07:25:53;;;;;;;1999.90;999.90;;;;;;;;;;5086579;27;20411;-82
2022/07/22 07:28:21;;;;;;;1999.90;999.90;;;;;;;;;;5086784;27;21118;-80
2022/07/22 07:30:56;;;;;;;1999.90;999.90;;;;;;;;;;5083798;27;20400;-80
2022/07/22 07:33:25;;;;;;;1999.90;999.90;;;;;;;;;;5119176;27;21654;-79
2022/07/22 07:35:54;;;;;;;1999.90;999.90;;;;;;;;;;5113838;27;21393;-80
2022/07/22 07:38:37;;;;;;;1999.90;999.90;;;;;;;;;;5105542;27;20446;-80
2022/07/22 07:47:22;;;;;;;1999.90;999.90;;;;;;;;;;5065732;27;21635;-77
2022/07/22 07:49:53;;;;;;;1999.90;999.90;;;;;;;;;;5076969;27;20403;-76
2022/07/22 07:52:23;;;;;;;1999.90;999.90;;;;;;;;;;5079427;27;21236;-77
2022/07/22 07:54:51;;;;;;;1999.90;999.90;;;;;;;;;;5097347;27;21632;-77
2022/07/22 07:57:40;;;;;;;1999.90;999.90;;;;;;;;;;5111495;27;20400;-76
2022/07/22 08:00:12;;;;;;;1999.90;999.90;;;;;;;;;;5080329;27;20416;-78
2022/07/22 08:02:40;;;;;;;1999.90;999.90;;;;;;;;;;5083225;27;20428;-78
2022/07/22 08:05:11;;;;;;;1999.90;999.90;;;;;;;;;;5072872;27;20534;-80
2022/07/22 08:07:45;;;;;;;1999.90;999.90;;;;;;;;;;5099106;27;20444;-79
2022/07/22 08:10:17;;;;;;;1999.90;999.90;;;;;;;;;;5070028;27;20894;-82
2022/07/22 08:13:27;;;;;;;1999.90;999.90;;;;;;;;;;5087589;27;21236;-81
2022/07/22 08:16:23;;;;;;;1999.90;999.90;;;;;;;;;;5080230;27;20470;-80
2022/07/22 08:18:52;;;;;;;1999.90;999.90;;;;;;;;;;5116865;27;20423;-82
2022/07/22 08:21:20;;;;;;;1999.90;999.90;;;;;;;;;;5097118;27;20506;-82
2022/07/22 08:23:56;;;;;;;1999.90;999.90;;;;;;;;;;5066054;27;20536;-79
2022/07/22 08:26:25;;;;;;;1999.90;999.90;;;;;;;;;;5101915;27;21433;-81
2022/07/22 08:29:00;;;;;;;1999.90;999.90;;;;;;;;;;5064359;27;20442;-78
2022/07/22 08:31:31;;;;;;;1999.90;999.90;;;;;;;;;;5062972;27;20389;-77
2022/07/22 08:34:00;;;;;;;1999.90;999.90;;;;;;;;;;5063148;27;20424;-75
2022/07/22 08:36:29;;;;;;;1999.90;999.90;;;;;;;;;;5111946;27;20834;-76
2022/07/22 08:38:57;;;;;;;1999.90;999.90;;;;;;;;;;5093982;27;21646;-76
2022/07/22 08:41:26;;;;;;;1999.90;999.90;;;;;;;;;;5063432;27;20413;-77
2022/07/22 08:43:56;;;;;;;1999.90;999.90;;;;;;;;;;5061659;27;20408;-75
2022/07/22 08:46:26;;;;;;;1999.90;999.90;;;;;;;;;;5062008;27;20402;-76
2022/07/22 08:49:14;;;;;;;1999.90;999.90;;;;;;;;;;5075703;27;20939;-76
2022/07/22 08:52:18;;;;;;;1999.90;999.90;;;;;;;;;;5072861;27;20503;-76
2022/07/22 08:54:49;;;;;;;1999.90;999.90;;;;;;;;;;5077639;27;20498;-74
2022/07/22 08:57:18;;;;;;;1999.90;999.90;;;;;;;;;;5060538;27;20411;-77
2022/07/22 08:59:53;;;;;;;1999.90;999.90;;;;;;;;;;5083205;27;20891;-75
2022/07/22 09:02:22;;;;;;;1999.90;999.90;;;;;;;;;;5091973;27;20417;-75
2022/07/22 09:04:51;;;;;;;1999.90;999.90;;;;;;;;;;5078556;27;20644;-76
2022/07/22 09:07:24;;;;;;;1999.90;999.90;;;;;;;;;;5066313;28;20401;-76
2022/07/22 09:09:53;;;;;;;1999.90;999.90;;;;;;;;;;5101160;27;20442;-76
2022/07/22 09:12:55;;;;;;;1999.90;999.90;;;;;;;;;;5080921;27;20396;-76
2022/07/22 09:15:46;;;;;;;1999.90;999.90;;;;;;;;;;5080838;27;20568;-77
2022/07/22 09:18:49;;;;;;;1999.90;999.90;;;;;;;;;;5112095;27;20443;-76
2022/07/22 09:21:36;;;;;;;1999.90;999.90;;;;;;;;;;5081167;27;20393;-75
2022/07/22 09:24:13;;;;;;;1999.90;999.90;;;;;;;;;;5075685;27;20405;-75
2022/07/22 09:26:41;;;;;;;1999.90;999.90;;;;;;;;;;5078384;27;22172;-75
2022/07/22 09:29:30;;;;;;;1999.90;999.90;;;;;;;;;;5081036;27;20463;-76
2022/07/22 09:32:12;;;;;;;1999.90;999.90;;;;;;;;;;5080067;27;21475;-76
2022/07/22 09:35:01;;;;;;;1999.90;999.90;;;;;;;;;;5081271;27;20408;-75
2022/07/22 09:37:32;;;;;;;1999.90;999.90;;;;;;;;;;5066274;27;20420;-74
2022/07/22 09:40:12;;;;;;;1999.90;999.90;;;;;;;;;;5084204;27;20474;-75
2022/07/22 09:42:47;;;;;;;1999.90;999.90;;;;;;;;;;5067526;27;20776;-73
2022/07/22 09:45:16;;;;;;;1999.90;999.90;;;;;;;;;;5060417;27;20438;-75
2022/07/22 09:47:45;;;;;;;1999.90;999.90;;;;;;;;;;5065754;28;20447;-73
2022/07/22 09:50:39;;;;;;;1999.90;999.90;;;;;;;;;;5062301;27;20388;-72
2022/07/22 09:53:20;;;;;;;1999.90;999.90;;;;;;;;;;5076323;27;20479;-72
2022/07/22 09:55:56;;;;;;;1999.90;999.90;;;;;;;;;;5057637;27;21400;-71
2022/07/22 09:58:25;;;;;;;1999.90;999.90;;;;;;;;;;5060394;27;20417;-71
2022/07/22 10:00:55;;;;;;;1999.90;999.90;;;;;;;;;;5095929;27;20408;-71
2022/07/22 10:03:26;;;;;;;1999.90;999.90;;;;;;;;;;5077623;27;20431;-71
2022/07/22 10:05:56;;;;;;;1999.90;999.90;;;;;;;;;;5083627;27;20404;-71
2022/07/22 10:08:26;;;;;;;1999.90;999.90;;;;;;;;;;5079643;27;23307;-72
2022/07/22 10:10:54;;;;;;;1999.90;999.90;;;;;;;;;;5077960;27;20951;-71
2022/07/22 10:13:22;;;;;;;1999.90;999.90;;;;;;;;;;5076307;27;20484;-78
2022/07/22 10:15:51;;;;;;;1999.90;999.90;;;;;;;;;;5085072;27;20449;-78
2022/07/22 10:18:19;;;;;;;1999.90;999.90;;;;;;;;;;5085283;27;20427;-77
2022/07/22 10:20:49;;;;;;;1999.90;999.90;;;;;;;;;;5085229;27;20403;-79
2022/07/22 10:23:18;;;;;;;1999.90;999.90;;;;;;;;;;5096833;27;20399;-78
2022/07/22 10:25:50;;;;;;;1999.90;999.90;;;;;;;;;;5104084;27;20397;-80
2022/07/22 10:28:21;;;;;;;1999.90;999.90;;;;;;;;;;5097515;27;20567;-78
2022/07/22 10:30:50;;;;;;;1999.90;999.90;;;;;;;;;;5084031;27;20465;-73
2022/07/22 10:33:19;;;;;;;1999.90;999.90;;;;;;;;;;5074893;27;20819;-73
2022/07/22 10:35:54;;;;;;;1999.90;999.90;;;;;;;;;;5080701;27;20532;-72
2022/07/22 10:38:24;;;;;;;1999.90;999.90;;;;;;;;;;5056480;27;20892;-72
2022/07/22 10:40:53;;;;;;;1999.90;999.90;;;;;;;;;;5077353;27;20414;-79
2022/07/22 10:43:22;;;;;;;1999.90;999.90;;;;;;;;;;5117287;27;20471;-79
2022/07/22 10:45:51;;;;;;;1999.90;999.90;;;;;;;;;;5104425;27;22091;-79
2022/07/22 10:48:20;;;;;;;1999.90;999.90;;;;;;;;;;5086568;27;20377;-80
2022/07/22 10:50:51;;;;;;;1999.90;999.90;;;;;;;;;;5093599;27;20480;-79
2022/07/22 10:53:21;;;;;;;1999.90;999.90;;;;;;;;;;5087575;27;20411;-79
2022/07/22 10:56:02;;;;;;;1999.90;999.90;;;;;;;;;;5092339;27;21259;-79
2022/07/22 10:58:43;;;;;;;1999.90;999.90;;;;;;;;;;5105121;27;20868;-79
2022/07/22 11:01:12;;;;;;;1999.90;999.90;;;;;;;;;;5089344;27;20394;-79
2022/07/22 11:03:41;;;;;;;1999.90;999.90;;;;;;;;;;5089160;27;21110;-78
2022/07/22 11:06:13;;;;;;;1999.90;999.90;;;;;;;;;;5087880;27;20441;-80
2022/07/22 11:08:41;;;;;;;1999.90;999.90;;;;;;;;;;5085198;27;21342;-79
2022/07/22 11:11:11;;;;;;;1999.90;999.90;;;;;;;;;;5085430;27;20395;-79
2022/07/22 11:13:40;;;;;;;1999.90;999.90;;;;;;;;;;5087042;27;20443;-79
2022/07/22 11:16:18;;;;;;;1999.90;999.90;;;;;;;;;;5088223;27;20472;-79
2022/07/22 11:18:47;;;;;;;1999.90;999.90;;;;;;;;;;5085228;27;20422;-79
2022/07/22 11:21:16;;;;;;;1999.90;999.90;;;;;;;;;;5085311;27;21207;-79
2022/07/22 11:23:44;;;;;;;1999.90;999.90;;;;;;;;;;5088711;27;20417;-82
2022/07/22 11:26:22;;;;;;;1999.90;999.90;;;;;;;;;;5080328;27;20407;-80
2022/07/22 11:28:53;;;;;;;1999.90;999.90;;;;;;;;;;5083194;27;20391;-79
2022/07/22 11:31:40;;;;;;;1999.90;999.90;;;;;;;;;;5064572;28;20498;-79
2022/07/22 11:34:15;;;;;;;1999.90;999.90;;;;;;;;;;5080245;27;20409;-79
2022/07/22 11:36:50;;;;;;;1999.90;999.90;;;;;;;;;;5079428;27;20413;-80
2022/07/22 11:39:23;;;;;;;1999.90;999.90;;;;;;;;;;5067143;27;20500;-80
2022/07/22 11:42:00;;;;;;;1999.90;999.90;;;;;;;;;;5081747;27;20445;-80
2022/07/22 11:44:30;;;;;;;1999.90;999.90;;;;;;;;;;5083685;27;20401;-80
2022/07/22 11:47:01;;;;;;;1999.90;999.90;;;;;;;;;;5085315;27;20813;-80
2022/07/22 11:50:07;;;;;;;1999.90;999.90;;;;;;;;;;5093705;27;20418;-79
2022/07/22 11:52:52;;;;;;;1999.90;999.90;;;;;;;;;;5085599;27;20606;-80
2022/07/22 11:55:36;;;;;;;1999.90;999.90;;;;;;;;;;5085077;27;20416;-81
2022/07/22 11:58:15;;;;;;;1999.90;999.90;;;;;;;;;;5084912;27;20428;-79
2022/07/22 12:00:46;;;;;;;1999.90;999.90;;;;;;;;;;5083477;27;20413;-79
2022/07/22 12:03:19;;;;;;;1999.90;999.90;;;;;;;;;;5068079;27;20396;-79
2022/07/22 12:05:54;;;;;;;1999.90;999.90;;;;;;;;;;5087776;27;20392;-80
2022/07/22 12:08:29;;;;;;;1999.90;999.90;;;;;;;;;;5086372;27;20403;-82
2022/07/22 12:10:58;;;;;;;1999.90;999.90;;;;;;;;;;5125560;27;20389;-80
2022/07/22 12:13:34;;;;;;;1999.90;999.90;;;;;;;;;;5091375;27;20470;-80
2022/07/22 12:16:22;;;;;;;1999.90;999.90;;;;;;;;;;5080208;27;20410;-79
2022/07/22 12:18:57;;;;;;;1999.90;999.90;;;;;;;;;;5090728;27;21217;-79
2022/07/22 12:21:36;;;;;;;1999.90;999.90;;;;;;;;;;5087630;27;20413;-80
2022/07/22 12:24:13;;;;;;;1999.90;999.90;;;;;;;;;;5115893;27;20460;-80
2022/07/22 12:26:49;;;;;;;1999.90;999.90;;;;;;;;;;5095435;27;20518;-80
2022/07/22 12:29:25;;;;;;;1999.90;999.90;;;;;;;;;;5089802;27;20359;-81
2022/07/22 12:31:56;;;;;;;1999.90;999.90;;;;;;;;;;5105243;27;20438;-77
2022/07/22 12:34:35;;;;;;;1999.90;999.90;;;;;;;;;;5091154;27;20395;-79
2022/07/22 12:37:12;;;;;;;1999.90;999.90;;;;;;;;;;5093814;27;21584;-80
2022/07/22 12:39:40;;;;;;;1999.90;999.90;;;;;;;;;;5088972;27;20484;-79
2022/07/22 12:42:17;;;;;;;1999.90;999.90;;;;;;;;;;5090498;27;20450;-79
2022/07/22 12:44:53;;;;;;;1999.90;999.90;;;;;;;;;;5090076;27;20381;-79
2022/07/22 12:47:44;;;;;;;1999.90;999.90;;;;;;;;;;5097781;27;20779;-79
2022/07/22 12:50:20;;;;;;;1999.90;999.90;;;;;;;;;;5100929;27;20489;-80
2022/07/22 12:52:48;;;;;;;1999.90;999.90;;;;;;;;;;5089074;27;20588;-81
2022/07/22 12:55:37;;;;;;;1999.90;999.90;;;;;;;;;;5093128;27;20984;-81
2022/07/22 12:58:05;;;;;;;1999.90;999.90;;;;;;;;;;5081372;27;20378;-81
2022/07/22 13:00:36;;;;;;;1999.90;999.90;;;;;;;;;;5100668;27;20398;-80
2022/07/22 13:03:04;;;;;;;1999.90;999.90;;;;;;;;;;5087005;27;20409;-80
2022/07/22 13:05:33;;;;;;;1999.90;999.90;;;;;;;;;;5104186;27;20363;-79
2022/07/22 13:08:01;;;;;;;1999.90;999.90;;;;;;;;;;5097239;27;20445;-81
2022/07/22 13:10:36;;;;;;;1999.90;999.90;;;;;;;;;;5094295;27;20976;-79
2022/07/22 13:13:06;;;;;;;1999.90;999.90;;;;;;;;;;5102532;27;20496;-77
2022/07/22 13:15:35;;;;;;;1999.90;999.90;;;;;;;;;;5096171;27;20443;-78
2022/07/22 13:18:04;;;;;;;1999.90;999.90;;;;;;;;;;5098877;27;20412;-80
2022/07/22 13:20:32;;;;;;;1999.90;999.90;;;;;;;;;;5095391;27;20367;-79
2022/07/22 13:23:00;;;;;;;1999.90;999.90;;;;;;;;;;5131746;27;20407;-79
2022/07/22 13:25:28;;;;;;;1999.90;999.90;;;;;;;;;;5105029;27;20404;-78
2022/07/22 13:27:57;;;;;;;1999.90;999.90;;;;;;;;;;5094019;27;20707;-78
2022/07/22 13:30:26;;;;;;;1999.90;999.90;;;;;;;;;;5111465;27;20502;-79
2022/07/22 13:32:55;;;;;;;1999.90;999.90;;;;;;;;;;5112493;27;20432;-79
2022/07/22 13:35:23;;;;;;;1999.90;999.90;;;;;;;;;;5096586;27;20416;-79
2022/07/22 13:37:51;;;;;;;1999.90;999.90;;;;;;;;;;5101356;27;20346;-78
2022/07/22 13:40:18;;;;;;;1999.90;999.90;;;;;;;;;;5098400;27;20428;-78
2022/07/22 13:42:46;;;;;;;1999.90;999.90;;;;;;;;;;5098636;27;20456;-78
2022/07/22 13:45:15;;;;;;;1999.90;999.90;;;;;;;;;;5097382;27;20376;-81
2022/07/22 13:47:43;;;;;;;1999.90;999.90;;;;;;;;;;5094279;27;20385;-78
2022/07/22 13:50:12;;;;;;;1999.90;999.90;;;;;;;;;;5094512;27;21542;-80
2022/07/22 13:52:40;;;;;;;1999.90;999.90;;;;;;;;;;5098791;27;20413;-81
2022/07/22 13:55:08;;;;;;;1999.90;999.90;;;;;;;;;;5096483;27;20423;-79
2022/07/22 13:57:36;;;;;;;1999.90;999.90;;;;;;;;;;5095976;27;20363;-78
2022/07/22 14:00:06;;;;;;;1999.90;999.90;;;;;;;;;;5111682;27;20409;-80
2022/07/22 14:02:41;;;;;;;1999.90;999.90;;;;;;;;;;5098308;27;20367;-79
2022/07/22 14:05:09;;;;;;;1999.90;999.90;;;;;;;;;;5112433;27;21364;-78
2022/07/22 14:07:40;;;;;;;1999.90;999.90;;;;;;;;;;5096852;27;20409;-79
2022/07/22 14:10:08;;;;;;;1999.90;999.90;;;;;;;;;;5095511;27;20454;-80
2022/07/22 14:12:36;;;;;;;1999.90;999.90;;;;;;;;;;5092846;27;20440;-78